Time;durP1;ratioP1;P1;durP2;ratioP2;P2;SDS_P1;SDS_P2;PMS_P1;PMS_P2;Temp;Humidity;BMP_temperature;BMP_pressure;BME280_temperature;BME280_humidity;BME280_pressure;Samples;Min_cycle;Max_cycle;Signal;HPM_P1;HPM_P2
2022/01/25 00:24:18;;;;;;;;;;;4.20;99.90;;;;;;5130772;27;20007;-57
2022/01/25 00:27:40;;;;;;;;;;;4.20;99.90;;;;;;5130885;27;20389;-57
2022/01/25 00:32:10;;;;;;;;;;;4.20;99.90;;;;;;5139154;27;19927;-56
2022/01/25 00:34:35;;;;;;;;;;;4.20;99.90;;;;;;5130625;27;19927;-56
2022/01/25 00:37:01;;;;;;;;;;;4.20;99.90;;;;;;5130046;27;19928;-56
2022/01/25 00:39:26;;;;;;;;;;;4.20;99.90;;;;;;5141060;27;19934;-61
2022/01/25 00:41:52;;;;;;;;;;;4.20;99.90;;;;;;5150296;27;20018;-59
2022/01/25 00:44:18;;;;;;;;;;;4.20;99.90;;;;;;5149474;27;19927;-61
2022/01/25 00:46:43;;;;;;;;;;;4.20;99.90;;;;;;5150466;27;19927;-58
2022/01/25 00:49:11;;;;;;;;;;;4.20;99.90;;;;;;5151053;27;19939;-57
2022/01/25 00:54:26;;;;;;;;;;;4.20;99.90;;;;;;5151077;27;20452;-56
2022/01/25 00:56:52;;;;;;;;;;;4.20;99.90;;;;;;5148337;27;19966;-58
2022/01/25 00:59:28;;;;;;;;;;;4.10;99.90;;;;;;5130381;27;19977;-57
2022/01/25 01:01:55;;;;;;;;;;;4.20;99.90;;;;;;5146553;27;19985;-58
2022/01/25 01:04:20;;;;;;;;;;;4.20;99.90;;;;;;5135127;27;19927;-61
2022/01/25 01:06:47;;;;;;;;;;;4.20;99.90;;;;;;5142609;27;19935;-62
2022/01/25 01:09:13;;;;;;;;;;;4.20;99.90;;;;;;5150938;27;20022;-57
2022/01/25 01:11:47;;;;;;;;;;;4.20;99.90;;;;;;5149885;27;19977;-59
2022/01/25 01:17:01;;;;;;;;;;;4.80;99.90;;;;;;5130036;27;19977;-64
2022/01/25 01:30:38;;;;;;;;;;;4.10;99.90;;;;;;5134679;27;20030;-59
2022/01/25 01:43:52;;;;;;;;;;;4.10;99.90;;;;;;5134959;27;20014;-57
2022/01/25 01:46:44;;;;;;;;;;;4.10;99.90;;;;;;5129518;27;20044;-57
2022/01/25 01:49:06;;;;;;;;;;;4.10;99.90;;;;;;5128784;27;19931;-56
2022/01/25 01:51:36;;;;;;;;;;;4.10;99.90;;;;;;5141407;27;20126;-56
2022/01/25 01:54:12;;;;;;;;;;;4.10;99.90;;;;;;5150400;27;19934;-60
2022/01/25 01:56:39;;;;;;;;;;;4.10;99.90;;;;;;5150005;27;20013;-56
2022/01/25 01:59:07;;;;;;;;;;;4.10;99.90;;;;;;5150094;27;19927;-63
2022/01/25 02:01:33;;;;;;;;;;;4.10;99.90;;;;;;5147690;27;19927;-65
2022/01/25 02:03:59;;;;;;;;;;;4.10;99.90;;;;;;5137599;27;19927;-56
2022/01/25 02:06:25;;;;;;;;;;;4.20;99.90;;;;;;5134776;27;19927;-58
2022/01/25 02:08:51;;;;;;;;;;;4.10;99.90;;;;;;5128781;27;20486;-60
2022/01/25 02:11:17;;;;;;;;;;;4.10;99.90;;;;;;5128027;27;19996;-56
2022/01/25 02:13:43;;;;;;;;;;;4.10;99.90;;;;;;5128660;27;20372;-56
2022/01/25 02:16:18;;;;;;;;;;;4.10;99.90;;;;;;5128235;27;19949;-58
2022/01/25 02:24:12;;;;;;;;;;;4.10;99.90;;;;;;5149579;27;19933;-56
2022/01/25 02:26:37;;;;;;;;;;;4.10;99.90;;;;;;5149770;27;19927;-61
2022/01/25 02:29:03;;;;;;;;;;;4.10;99.90;;;;;;5145830;27;19954;-67
2022/01/25 02:31:29;;;;;;;;;;;4.10;99.90;;;;;;5135145;27;19935;-62
2022/01/25 02:33:54;;;;;;;;;;;4.10;99.90;;;;;;5142918;27;19927;-67
2022/01/25 02:36:29;;;;;;;;;;;4.10;99.90;;;;;;5129002;27;19934;-66
2022/01/25 02:38:55;;;;;;;;;;;4.10;99.90;;;;;;5134297;27;19934;-56
2022/01/25 02:41:21;;;;;;;;;;;4.10;99.90;;;;;;5149912;27;20269;-60
2022/01/25 02:43:47;;;;;;;;;;;4.10;99.90;;;;;;5149285;27;20380;-58
2022/01/25 02:48:53;;;;;;;;;;;4.10;99.90;;;;;;5149434;27;19927;-58
2022/01/25 02:51:20;;;;;;;;;;;4.10;99.90;;;;;;5148929;27;19931;-57
2022/01/25 02:53:45;;;;;;;;;;;4.10;99.90;;;;;;5149020;27;20535;-56
2022/01/25 02:56:13;;;;;;;;;;;4.10;99.90;;;;;;5149288;27;20018;-57
2022/01/25 02:58:38;;;;;;;;;;;4.10;99.90;;;;;;5149865;27;20370;-56
2022/01/25 03:01:04;;;;;;;;;;;4.70;99.90;;;;;;5139590;27;19924;-56
2022/01/25 03:03:29;;;;;;;;;;;4.10;99.90;;;;;;5136138;27;20412;-57
2022/01/25 03:05:55;;;;;;;;;;;4.10;99.90;;;;;;5142341;27;19997;-56
2022/01/25 03:08:20;;;;;;;;;;;4.80;99.90;;;;;;5128840;27;20388;-57
2022/01/25 03:10:47;;;;;;;;;;;4.10;99.90;;;;;;5128525;28;19935;-58
2022/01/25 03:13:21;;;;;;;;;;;4.10;99.90;;;;;;5137506;27;19931;-56
2022/01/25 03:18:39;;;;;;;;;;;4.00;99.90;;;;;;5149249;27;19942;-60
2022/01/25 03:21:15;;;;;;;;;;;4.00;99.90;;;;;;5148694;27;20327;-58
2022/01/25 03:23:41;;;;;;;;;;;4.00;99.90;;;;;;5149443;27;19931;-56
2022/01/25 03:26:07;;;;;;;;;;;4.00;99.90;;;;;;5148489;27;20443;-57
2022/01/25 03:28:33;;;;;;;;;;;4.70;99.90;;;;;;5136638;27;19931;-56
2022/01/25 03:30:59;;;;;;;;;;;4.30;99.90;;;;;;5134112;27;19934;-59
2022/01/25 03:33:24;;;;;;;;;;;4.10;99.90;;;;;;5152532;27;19934;-60
2022/01/25 03:35:50;;;;;;;;;;;4.10;99.90;;;;;;5133064;27;19949;-56
2022/01/25 03:38:15;;;;;;;;;;;4.10;99.90;;;;;;5131831;27;19928;-56
2022/01/25 03:40:41;;;;;;;;;;;4.20;99.90;;;;;;5152700;27;19931;-56
2022/01/25 03:43:08;;;;;;;;;;;4.10;99.90;;;;;;5151745;27;19927;-56
2022/01/25 03:45:36;;;;;;;;;;;4.10;99.90;;;;;;5151938;27;19979;-56
2022/01/25 03:50:41;;;;;;;;;;;4.10;99.90;;;;;;5152490;27;19927;-56
2022/01/25 03:53:07;;;;;;;;;;;4.10;99.90;;;;;;5152381;27;19934;-58
2022/01/25 03:55:32;;;;;;;;;;;4.00;99.90;;;;;;5150618;27;19927;-58
2022/01/25 03:57:58;;;;;;;;;;;4.10;99.90;;;;;;5151597;27;19927;-56
2022/01/25 04:00:24;;;;;;;;;;;4.00;99.90;;;;;;5149249;27;19939;-56
2022/01/25 04:03:03;;;;;;;;;;;4.10;99.90;;;;;;5133690;27;20269;-56
2022/01/25 04:08:13;;;;;;;;;;;4.10;99.90;;;;;;5131828;27;19927;-56
2022/01/25 04:10:39;;;;;;;;;;;4.10;99.90;;;;;;5131260;27;19934;-56
2022/01/25 04:13:05;;;;;;;;;;;4.10;99.90;;;;;;5131131;27;20409;-56
2022/01/25 04:15:31;;;;;;;;;;;4.10;99.90;;;;;;5131432;27;19978;-55
2022/01/25 04:18:20;;;;;;;;;;;4.10;99.90;;;;;;5131359;27;19927;-56
2022/01/25 04:20:57;;;;;;;;;;;4.10;99.90;;;;;;5131373;27;19933;-56
2022/01/25 04:26:07;;;;;;;;;;;4.10;99.90;;;;;;5130874;27;19958;-57
2022/01/25 04:28:33;;;;;;;;;;;4.10;99.90;;;;;;5131154;27;20389;-56
2022/01/25 04:30:58;;;;;;;;;;;4.10;99.90;;;;;;5148119;27;20269;-57
2022/01/25 04:33:27;;;;;;;;;;;4.10;99.90;;;;;;5130461;27;19988;-57
2022/01/25 04:49:28;;;;;;;;;;;4.10;99.90;;;;;;5151286;27;19927;-56
2022/01/25 04:55:17;;;;;;;;;;;4.10;99.90;;;;;;5151181;27;19971;-57
2022/01/25 04:59:48;;;;;;;;;;;4.10;99.90;;;;;;5151145;27;19927;-56
2022/01/25 05:02:19;;;;;;;;;;;4.10;99.90;;;;;;5140890;27;19978;-57
2022/01/25 05:04:52;;;;;;;;;;;4.10;99.90;;;;;;5131883;27;19934;-57
2022/01/25 05:09:45;;;;;;;;;;;4.10;99.90;;;;;;5150899;27;19989;-57
2022/01/25 05:12:12;;;;;;;;;;;4.10;99.90;;;;;;5150071;27;19974;-57
2022/01/25 05:14:48;;;;;;;;;;;4.00;99.90;;;;;;5150860;27;19927;-56
2022/01/25 05:17:18;;;;;;;;;;;4.10;99.90;;;;;;5150553;27;20030;-56
2022/01/25 05:22:33;;;;;;;;;;;4.10;99.90;;;;;;5150902;27;19979;-57
2022/01/25 05:24:58;;;;;;;;;;;5.00;99.90;;;;;;5149625;27;20362;-59
2022/01/25 05:27:27;;;;;;;;;;;4.10;99.90;;;;;;5146258;27;19934;-58
2022/01/25 05:29:53;;;;;;;;;;;4.00;99.90;;;;;;5140586;27;20439;-56
2022/01/25 05:32:18;;;;;;;;;;;4.00;99.90;;;;;;5137227;27;20022;-56
2022/01/25 05:34:44;;;;;;;;;;;4.00;99.90;;;;;;5129009;27;19923;-60
2022/01/25 05:37:10;;;;;;;;;;;4.20;99.90;;;;;;5129651;27;20434;-59
2022/01/25 05:39:37;;;;;;;;;;;4.00;99.90;;;;;;5139424;27;20019;-57
2022/01/25 05:45:11;;;;;;;;;;;4.00;99.90;;;;;;5139203;27;19927;-58
2022/01/25 05:47:38;;;;;;;;;;;4.00;99.90;;;;;;5129415;27;20413;-56
2022/01/25 05:50:04;;;;;;;;;;;4.20;99.90;;;;;;5129467;27;20329;-59
2022/01/25 05:52:29;;;;;;;;;;;4.00;99.90;;;;;;5129387;27;20311;-59
2022/01/25 05:54:56;;;;;;;;;;;4.00;99.90;;;;;;5127833;27;20392;-56
2022/01/25 05:57:22;;;;;;;;;;;4.10;99.90;;;;;;5136676;27;19927;-56
2022/01/25 05:59:48;;;;;;;;;;;4.10;99.90;;;;;;5148198;27;20288;-57
2022/01/25 06:02:18;;;;;;;;;;;4.10;99.90;;;;;;5130160;27;19927;-57
2022/01/25 06:04:44;;;;;;;;;;;4.00;99.90;;;;;;5146809;27;19931;-56
2022/01/25 06:07:10;;;;;;;;;;;4.00;99.90;;;;;;5133363;27;19927;-56
2022/01/25 06:09:35;;;;;;;;;;;4.00;99.90;;;;;;5143669;27;19926;-56
2022/01/25 06:12:01;;;;;;;;;;;4.00;99.90;;;;;;5147796;27;19933;-56
2022/01/25 06:14:26;;;;;;;;;;;4.00;99.90;;;;;;5149946;27;19927;-56
2022/01/25 06:16:52;;;;;;;;;;;4.00;99.90;;;;;;5136991;27;20378;-57
2022/01/25 06:19:17;;;;;;;;;;;4.00;99.90;;;;;;5128043;28;19928;-56
2022/01/25 06:21:43;;;;;;;;;;;4.00;99.90;;;;;;5129283;27;19931;-57
2022/01/25 06:24:09;;;;;;;;;;;4.00;99.90;;;;;;5129286;27;19932;-58
2022/01/25 06:26:34;;;;;;;;;;;4.10;99.90;;;;;;5128742;27;20369;-56
2022/01/25 06:29:01;;;;;;;;;;;4.00;99.90;;;;;;5132550;27;20357;-57
2022/01/25 06:31:27;;;;;;;;;;;4.00;99.90;;;;;;5143696;27;20779;-57
2022/01/25 06:33:52;;;;;;;;;;;4.10;99.90;;;;;;5128292;27;19927;-56
2022/01/25 06:36:19;;;;;;;;;;;4.00;99.90;;;;;;5128849;28;19980;-59
2022/01/25 06:38:44;;;;;;;;;;;4.00;99.90;;;;;;5133166;27;19927;-57
2022/01/25 06:41:11;;;;;;;;;;;4.00;99.90;;;;;;5133138;27;20000;-60
2022/01/25 06:43:38;;;;;;;;;;;4.00;99.90;;;;;;5128878;27;19934;-58
2022/01/25 06:46:03;;;;;;;;;;;4.10;99.90;;;;;;5128290;27;19938;-56
2022/01/25 06:48:30;;;;;;;;;;;4.00;99.90;;;;;;5129031;27;19928;-56
2022/01/25 06:50:56;;;;;;;;;;;4.00;99.90;;;;;;5129247;27;19971;-56
2022/01/25 06:53:22;;;;;;;;;;;4.10;99.90;;;;;;5128862;28;19958;-56
2022/01/25 06:55:47;;;;;;;;;;;4.00;99.90;;;;;;5131897;27;20010;-55
2022/01/25 06:58:13;;;;;;;;;;;4.20;99.90;;;;;;5149190;27;20462;-56
2022/01/25 07:00:39;;;;;;;;;;;4.10;99.90;;;;;;5141616;27;19927;-56
2022/01/25 07:03:05;;;;;;;;;;;4.00;99.90;;;;;;5144271;27;19978;-59
2022/01/25 07:05:30;;;;;;;;;;;4.00;99.90;;;;;;5134635;27;19927;-58
2022/01/25 07:07:56;;;;;;;;;;;4.50;99.90;;;;;;5152696;27;20314;-57
2022/01/25 07:10:21;;;;;;;;;;;4.10;99.90;;;;;;5137826;27;19927;-59
2022/01/25 07:12:47;;;;;;;;;;;4.60;99.90;;;;;;5137475;27;19927;-58
2022/01/25 07:15:13;;;;;;;;;;;4.10;99.90;;;;;;5152729;27;19931;-59
2022/01/25 07:17:39;;;;;;;;;;;4.10;99.90;;;;;;5136574;27;20407;-56
2022/01/25 07:20:06;;;;;;;;;;;4.10;99.90;;;;;;5125452;27;19961;-59
2022/01/25 07:22:35;;;;;;;;;;;4.10;99.90;;;;;;5136735;27;20459;-56
2022/01/25 07:25:02;;;;;;;;;;;4.10;99.90;;;;;;5134894;27;19927;-56
2022/01/25 07:27:28;;;;;;;;;;;4.10;99.90;;;;;;5130629;27;19952;-59
2022/01/25 07:29:53;;;;;;;;;;;4.10;99.90;;;;;;5135226;27;20352;-57
2022/01/25 07:32:19;;;;;;;;;;;4.20;99.90;;;;;;5138905;27;20042;-59
2022/01/25 07:34:44;;;;;;;;;;;4.10;99.90;;;;;;5140378;27;19976;-59
2022/01/25 07:37:10;;;;;;;;;;;4.10;99.90;;;;;;5151052;27;20039;-57
2022/01/25 07:39:35;;;;;;;;;;;4.10;99.90;;;;;;5149442;27;19970;-56
2022/01/25 07:42:01;;;;;;;;;;;4.10;99.90;;;;;;5143553;27;20018;-56
2022/01/25 07:44:30;;;;;;;;;;;4.10;99.90;;;;;;5131460;27;19972;-56
2022/01/25 07:47:01;;;;;;;;;;;4.90;99.90;;;;;;5132292;27;19927;-58
2022/01/25 07:49:27;;;;;;;;;;;4.10;99.90;;;;;;5131701;27;19927;-60
2022/01/25 07:51:53;;;;;;;;;;;4.10;99.90;;;;;;5137691;27;19927;-57
2022/01/25 07:54:18;;;;;;;;;;;5.20;99.90;;;;;;5130797;27;19939;-57
2022/01/25 07:56:44;;;;;;;;;;;4.20;99.90;;;;;;5132885;27;19934;-57
2022/01/25 07:59:10;;;;;;;;;;;4.10;99.90;;;;;;5130987;27;19949;-59
2022/01/25 08:01:35;;;;;;;;;;;4.10;99.90;;;;;;5134201;27;19979;-59
2022/01/25 08:04:01;;;;;;;;;;;4.10;99.90;;;;;;5140154;27;20332;-59
2022/01/25 08:06:27;;;;;;;;;;;4.20;99.90;;;;;;5137206;27;19996;-57
2022/01/25 08:08:53;;;;;;;;;;;4.20;99.90;;;;;;5139449;27;20318;-59
2022/01/25 08:11:19;;;;;;;;;;;4.90;99.90;;;;;;5139757;27;20364;-57
2022/01/25 08:13:48;;;;;;;;;;;4.20;99.90;;;;;;5134161;27;19970;-59
2022/01/25 08:16:17;;;;;;;;;;;4.20;99.90;;;;;;5137621;27;19927;-56
2022/01/25 08:18:43;;;;;;;;;;;4.20;99.90;;;;;;5131537;27;19980;-56
2022/01/25 08:21:09;;;;;;;;;;;4.30;99.90;;;;;;5142315;27;20089;-57
2022/01/25 08:23:35;;;;;;;;;;;4.20;99.90;;;;;;5141173;27;20067;-57
2022/01/25 08:26:01;;;;;;;;;;;4.30;99.90;;;;;;5148746;27;19934;-56
2022/01/25 08:28:26;;;;;;;;;;;4.30;99.90;;;;;;5139443;27;20458;-59
2022/01/25 08:30:52;;;;;;;;;;;4.20;99.90;;;;;;5144884;27;20013;-56
2022/01/25 08:33:17;;;;;;;;;;;4.30;99.90;;;;;;5132899;27;19934;-56
2022/01/25 08:35:43;;;;;;;;;;;4.20;99.90;;;;;;5131446;27;19938;-59
2022/01/25 08:38:08;;;;;;;;;;;4.20;99.90;;;;;;5134936;27;20368;-56
2022/01/25 08:40:34;;;;;;;;;;;4.30;99.90;;;;;;5135036;27;19927;-57
2022/01/25 08:43:00;;;;;;;;;;;4.30;99.90;;;;;;5141386;27;20395;-56
2022/01/25 08:45:26;;;;;;;;;;;4.30;99.90;;;;;;5145072;27;19931;-57
2022/01/25 08:47:52;;;;;;;;;;;4.30;99.90;;;;;;5133930;27;20451;-57
2022/01/25 08:50:18;;;;;;;;;;;4.40;99.90;;;;;;5130365;27;19980;-59
2022/01/25 08:52:43;;;;;;;;;;;4.30;99.90;;;;;;5142962;27;20303;-59
2022/01/25 08:55:09;;;;;;;;;;;4.40;99.90;;;;;;5137150;27;19931;-56
2022/01/25 08:57:34;;;;;;;;;;;4.30;99.90;;;;;;5129192;27;19927;-69
2022/01/25 09:00:01;;;;;;;;;;;4.40;99.90;;;;;;5129469;27;19931;-59
2022/01/25 09:02:26;;;;;;;;;;;4.30;99.90;;;;;;5127152;27;19927;-58
2022/01/25 09:04:52;;;;;;;;;;;4.30;99.90;;;;;;5132242;27;19928;-58
2022/01/25 09:07:17;;;;;;;;;;;4.40;99.90;;;;;;5124971;27;19934;-61
2022/01/25 09:09:43;;;;;;;;;;;4.40;99.90;;;;;;5128777;27;20318;-63
2022/01/25 09:12:11;;;;;;;;;;;4.60;99.90;;;;;;5138488;27;20010;-57
2022/01/25 09:14:37;;;;;;;;;;;4.40;99.90;;;;;;5147648;27;19937;-55
2022/01/25 09:17:02;;;;;;;;;;;4.40;99.90;;;;;;5140011;27;19927;-58
2022/01/25 09:19:28;;;;;;;;;;;4.40;99.90;;;;;;5146396;27;20435;-56
2022/01/25 09:21:53;;;;;;;;;;;5.10;99.90;;;;;;5147777;27;19931;-57
2022/01/25 09:24:19;;;;;;;;;;;4.40;99.90;;;;;;5138924;27;20477;-58
2022/01/25 09:26:44;;;;;;;;;;;4.40;99.90;;;;;;5130933;27;19935;-56
2022/01/25 09:29:10;;;;;;;;;;;4.40;99.90;;;;;;5140324;27;20360;-60
2022/01/25 09:31:36;;;;;;;;;;;4.40;99.90;;;;;;5142118;27;20269;-61
2022/01/25 09:34:01;;;;;;;;;;;4.40;99.90;;;;;;5138878;27;19927;-59
2022/01/25 09:36:27;;;;;;;;;;;4.40;99.90;;;;;;5130124;27;19977;-57
2022/01/25 09:38:53;;;;;;;;;;;4.40;99.90;;;;;;5127798;27;20581;-58
2022/01/25 09:41:19;;;;;;;;;;;4.50;99.90;;;;;;5143834;27;20647;-56
2022/01/25 09:43:44;;;;;;;;;;;4.40;99.90;;;;;;5142448;27;19985;-56
2022/01/25 09:46:10;;;;;;;;;;;4.40;99.90;;;;;;5146198;27;19931;-56
2022/01/25 09:48:36;;;;;;;;;;;4.50;99.90;;;;;;5145414;27;19957;-59
2022/01/25 09:51:02;;;;;;;;;;;4.50;99.90;;;;;;5127655;27;20008;-57
2022/01/25 09:53:29;;;;;;;;;;;4.50;99.90;;;;;;5146494;27;19979;-57
2022/01/25 09:55:55;;;;;;;;;;;4.70;99.90;;;;;;5127220;27;19935;-56
2022/01/25 09:58:21;;;;;;;;;;;4.50;99.90;;;;;;5126337;27;19927;-56
2022/01/25 10:00:47;;;;;;;;;;;4.50;99.90;;;;;;5127109;27;19927;-57
2022/01/25 10:03:21;;;;;;;;;;;4.50;99.90;;;;;;5133519;27;19927;-61
2022/01/25 10:05:48;;;;;;;;;;;4.50;99.90;;;;;;5136005;27;20347;-56
2022/01/25 10:08:16;;;;;;;;;;;5.10;99.90;;;;;;5126166;27;20350;-59
2022/01/25 10:10:43;;;;;;;;;;;4.50;99.90;;;;;;5126507;27;20415;-58
2022/01/25 10:13:14;;;;;;;;;;;4.50;99.90;;;;;;5136552;27;20035;-57
2022/01/25 10:15:39;;;;;;;;;;;4.90;99.90;;;;;;5132297;27;19926;-60
2022/01/25 10:18:05;;;;;;;;;;;4.50;99.90;;;;;;5143706;27;19984;-56
2022/01/25 10:20:33;;;;;;;;;;;4.60;99.90;;;;;;5136685;27;19931;-58
2022/01/25 10:23:01;;;;;;;;;;;4.60;99.90;;;;;;5130444;27;19934;-60
2022/01/25 10:25:40;;;;;;;;;;;4.60;99.90;;;;;;5135295;27;20407;-59
2022/01/25 10:28:11;;;;;;;;;;;4.60;99.90;;;;;;5128652;27;19949;-56
2022/01/25 10:30:51;;;;;;;;;;;4.60;99.90;;;;;;5124689;27;19931;-56
2022/01/25 10:33:16;;;;;;;;;;;4.60;99.90;;;;;;5128430;27;19928;-57
2022/01/25 10:35:42;;;;;;;;;;;4.60;99.90;;;;;;5124908;27;20430;-57
2022/01/25 10:38:18;;;;;;;;;;;4.60;99.90;;;;;;5127259;27;19962;-58
2022/01/25 10:40:43;;;;;;;;;;;4.70;99.90;;;;;;5135639;27;19931;-56
2022/01/25 10:43:12;;;;;;;;;;;4.60;99.90;;;;;;5129549;27;19931;-57
2022/01/25 10:45:38;;;;;;;;;;;4.60;99.90;;;;;;5131036;27;20008;-57
2022/01/25 10:48:03;;;;;;;;;;;4.60;99.90;;;;;;5131118;27;20283;-57
2022/01/25 10:50:39;;;;;;;;;;;4.60;99.90;;;;;;5128719;27;20014;-56
2022/01/25 10:53:07;;;;;;;;;;;5.10;99.90;;;;;;5131333;27;19962;-59
2022/01/25 10:55:37;;;;;;;;;;;4.60;99.90;;;;;;5125438;27;19927;-59
2022/01/25 10:58:03;;;;;;;;;;;4.60;99.90;;;;;;5128993;27;19935;-58
2022/01/25 11:00:36;;;;;;;;;;;4.60;99.90;;;;;;5130317;27;19980;-59
2022/01/25 11:03:03;;;;;;;;;;;4.60;99.90;;;;;;5127989;27;19972;-59
2022/01/25 11:05:37;;;;;;;;;;;4.60;99.90;;;;;;5133101;27;20233;-59
2022/01/25 11:08:09;;;;;;;;;;;4.70;99.90;;;;;;5128115;27;19931;-59
2022/01/25 11:10:36;;;;;;;;;;;4.70;99.90;;;;;;5134552;27;20383;-61
2022/01/25 11:13:20;;;;;;;;;;;4.80;99.90;;;;;;5134138;27;20022;-60
2022/01/25 11:15:46;;;;;;;;;;;4.70;99.90;;;;;;5136099;27;19927;-59
2022/01/25 11:18:12;;;;;;;;;;;4.70;99.90;;;;;;5135727;27;20348;-61
2022/01/25 11:20:37;;;;;;;;;;;4.80;99.90;;;;;;5133029;27;19930;-59
2022/01/25 11:23:03;;;;;;;;;;;5.00;99.90;;;;;;5129482;27;20027;-61
2022/01/25 11:25:29;;;;;;;;;;;5.20;99.90;;;;;;5139584;27;19926;-59
2022/01/25 11:27:57;;;;;;;;;;;4.90;99.90;;;;;;5134875;27;20353;-59
2022/01/25 11:30:22;;;;;;;;;;;4.90;99.90;;;;;;5132850;27;19927;-59
2022/01/25 11:32:49;;;;;;;;;;;4.80;99.90;;;;;;5134896;27;19934;-60
2022/01/25 11:35:19;;;;;;;;;;;4.90;99.90;;;;;;5130583;27;19931;-60
2022/01/25 11:37:46;;;;;;;;;;;4.90;99.90;;;;;;5133984;27;19971;-59
2022/01/25 11:40:21;;;;;;;;;;;5.00;99.90;;;;;;5139571;27;19927;-58
2022/01/25 11:42:48;;;;;;;;;;;4.90;99.90;;;;;;5127654;27;19938;-59
2022/01/25 11:45:14;;;;;;;;;;;5.20;99.90;;;;;;5129173;27;19976;-59
2022/01/25 11:47:39;;;;;;;;;;;4.80;99.90;;;;;;5128381;27;20026;-56
2022/01/25 11:50:05;;;;;;;;;;;5.30;99.90;;;;;;5129223;27;19927;-57
2022/01/25 11:52:31;;;;;;;;;;;4.90;99.90;;;;;;5128284;27;20384;-60
2022/01/25 11:55:15;;;;;;;;;;;4.80;99.90;;;;;;5129657;27;20451;-60
2022/01/25 11:57:48;;;;;;;;;;;4.80;99.90;;;;;;5135805;27;19931;-59
2022/01/25 12:00:14;;;;;;;;;;;4.90;99.90;;;;;;5136248;27;19931;-56
2022/01/25 12:02:45;;;;;;;;;;;4.90;99.90;;;;;;5137583;27;20026;-61
2022/01/25 12:05:16;;;;;;;;;;;4.80;99.90;;;;;;5133843;27;20026;-57
2022/01/25 12:08:00;;;;;;;;;;;4.80;99.90;;;;;;5135766;27;19935;-57
2022/01/25 12:10:29;;;;;;;;;;;4.90;99.90;;;;;;5135967;27;19935;-59
2022/01/25 12:13:12;;;;;;;;;;;4.90;99.90;;;;;;5138043;27;20302;-56
2022/01/25 12:15:37;;;;;;;;;;;4.90;99.90;;;;;;5136601;27;19928;-56
2022/01/25 12:18:03;;;;;;;;;;;4.90;99.90;;;;;;5134246;27;19927;-59
2022/01/25 12:20:28;;;;;;;;;;;4.90;99.90;;;;;;5130246;27;19953;-60
2022/01/25 12:23:05;;;;;;;;;;;5.00;99.90;;;;;;5129030;27;19935;-59
2022/01/25 12:25:47;;;;;;;;;;;5.00;99.90;;;;;;5146307;27;20348;-59
2022/01/25 12:28:24;;;;;;;;;;;5.10;99.90;;;;;;5134797;27;19927;-60
2022/01/25 12:30:49;;;;;;;;;;;5.10;99.90;;;;;;5132081;27;19979;-60
2022/01/25 12:33:21;;;;;;;;;;;5.20;99.90;;;;;;5129775;27;19931;-59
2022/01/25 12:35:49;;;;;;;;;;;5.20;99.90;;;;;;5127397;27;19939;-60
2022/01/25 12:38:14;;;;;;;;;;;5.20;99.90;;;;;;5133705;27;20377;-59
2022/01/25 12:41:01;;;;;;;;;;;5.10;99.90;;;;;;5140443;27;19931;-59
2022/01/25 12:43:38;;;;;;;;;;;5.20;99.90;;;;;;5130194;27;20280;-59
2022/01/25 12:46:15;;;;;;;;;;;5.10;99.90;;;;;;5135599;27;19931;-59
2022/01/25 12:48:46;;;;;;;;;;;5.10;99.90;;;;;;5126115;27;20301;-57
2022/01/25 12:51:14;;;;;;;;;;;5.00;99.90;;;;;;5132817;27;19933;-56
2022/01/25 12:53:42;;;;;;;;;;;5.30;99.90;;;;;;5134566;27;20268;-56
2022/01/25 12:56:10;;;;;;;;;;;5.00;99.90;;;;;;5128553;27;19928;-56
2022/01/25 12:58:36;;;;;;;;;;;5.00;99.90;;;;;;5128637;27;19927;-56
2022/01/25 13:01:07;;;;;;;;;;;5.00;99.90;;;;;;5134338;27;20176;-57
2022/01/25 13:03:34;;;;;;;;;;;4.90;99.90;;;;;;5131740;27;20583;-56
2022/01/25 13:06:08;;;;;;;;;;;4.80;99.90;;;;;;5142638;27;19927;-56
2022/01/25 13:08:46;;;;;;;;;;;4.80;99.90;;;;;;5131519;27;19938;-57
2022/01/25 13:11:19;;;;;;;;;;;4.80;99.90;;;;;;5132810;27;19927;-56
2022/01/25 13:13:58;;;;;;;;;;;4.90;99.90;;;;;;5141985;27;20440;-59
2022/01/25 13:16:34;;;;;;;;;;;4.90;99.90;;;;;;5127766;27;20018;-59
2022/01/25 13:18:59;;;;;;;;;;;4.90;99.90;;;;;;5118664;27;20018;-59
2022/01/25 13:21:39;;;;;;;;;;;4.90;99.90;;;;;;5017996;28;19922;-59
2022/01/25 13:24:08;;;;;;;;;;;4.90;99.90;;;;;;5005764;28;19965;-57
2022/01/25 13:26:39;;;;;;;;;;;4.90;99.90;;;;;;4998939;28;19934;-58
2022/01/25 13:32:12;;;;;;;;;;;4.80;99.90;;;;;;5005320;28;19998;-58
2022/01/25 13:34:38;;;;;;;;;;;4.70;99.90;;;;;;4999018;28;19925;-57
2022/01/25 13:37:03;;;;;;;;;;;4.80;99.90;;;;;;5005362;28;20500;-59
2022/01/25 13:39:30;;;;;;;;;;;4.80;99.90;;;;;;5010962;28;19981;-57
2022/01/25 13:42:08;;;;;;;;;;;4.80;99.90;;;;;;5010638;28;20024;-58
2022/01/25 13:47:18;;;;;;;;;;;4.80;99.90;;;;;;4989933;28;19936;-60
2022/01/25 13:49:44;;;;;;;;;;;4.70;99.90;;;;;;4990597;28;19929;-58
2022/01/25 13:52:10;;;;;;;;;;;4.80;99.90;;;;;;4988799;28;19937;-57
2022/01/25 13:54:35;;;;;;;;;;;4.80;99.90;;;;;;4976200;28;19930;-56
2022/01/25 13:57:10;;;;;;;;;;;4.80;99.90;;;;;;4998140;28;19937;-56
2022/01/25 13:59:35;;;;;;;;;;;4.90;99.90;;;;;;4995968;28;20025;-56
2022/01/25 14:02:01;;;;;;;;;;;5.00;99.90;;;;;;4991810;28;20020;-58
2022/01/25 14:04:28;;;;;;;;;;;4.90;99.90;;;;;;4996944;28;19936;-59
2022/01/25 14:06:58;;;;;;;;;;;4.90;99.90;;;;;;4998629;28;19984;-56
2022/01/25 14:09:28;;;;;;;;;;;4.80;99.90;;;;;;4995608;28;19930;-56
2022/01/25 14:25:28;;;;;;;;;;;4.80;99.90;;;;;;4996200;28;20798;-59
2022/01/25 14:27:55;;;;;;;;;;;4.70;99.90;;;;;;4984257;28;19934;-63
2022/01/25 14:30:21;;;;;;;;;;;4.70;99.90;;;;;;4995521;28;19933;-56
2022/01/25 14:33:10;;;;;;;;;;;4.70;99.90;;;;;;4984427;28;19972;-56
2022/01/25 14:35:44;;;;;;;;;;;4.70;99.90;;;;;;4975509;28;20091;-56
2022/01/25 14:38:19;;;;;;;;;;;4.70;99.90;;;;;;4982493;28;19936;-60
2022/01/25 14:41:01;;;;;;;;;;;4.70;99.90;;;;;;4976418;28;19940;-60
2022/01/25 14:43:31;;;;;;;;;;;4.60;99.90;;;;;;4980018;28;19929;-56
2022/01/25 14:46:00;;;;;;;;;;;4.70;99.90;;;;;;4983799;28;19951;-56
2022/01/25 14:48:26;;;;;;;;;;;4.70;99.90;;;;;;4984295;28;19948;-60
2022/01/25 14:50:59;;;;;;;;;;;4.50;99.90;;;;;;4981100;28;20363;-59
2022/01/25 14:53:24;;;;;;;;;;;4.50;99.90;;;;;;4984259;28;19934;-57
2022/01/25 14:55:52;;;;;;;;;;;5.30;99.90;;;;;;4983528;28;19938;-56
2022/01/25 15:00:47;;;;;;;;;;;4.50;99.90;;;;;;4975648;28;19929;-59
2022/01/25 15:03:12;;;;;;;;;;;4.50;99.90;;;;;;4974196;28;19972;-58
2022/01/25 15:05:38;;;;;;;;;;;4.60;99.90;;;;;;4983118;28;19972;-56
2022/01/25 15:08:04;;;;;;;;;;;4.50;99.90;;;;;;4987467;28;20413;-58
2022/01/25 15:10:32;;;;;;;;;;;4.60;99.90;;;;;;4977285;28;19937;-57
2022/01/25 15:12:58;;;;;;;;;;;5.10;99.90;;;;;;4996082;28;19957;-56
2022/01/25 15:15:27;;;;;;;;;;;4.60;99.90;;;;;;5000145;28;19992;-56
2022/01/25 15:17:53;;;;;;;;;;;4.60;99.90;;;;;;4990475;28;20499;-56
2022/01/25 15:20:19;;;;;;;;;;;4.50;99.90;;;;;;4982338;28;19979;-57
2022/01/25 15:22:46;;;;;;;;;;;4.50;99.90;;;;;;4986781;28;19941;-56
2022/01/25 15:25:14;;;;;;;;;;;4.90;99.90;;;;;;4990491;28;19929;-56
2022/01/25 15:27:40;;;;;;;;;;;4.40;99.90;;;;;;4993116;28;19929;-56
2022/01/25 15:30:06;;;;;;;;;;;4.40;99.90;;;;;;4985463;28;20383;-56
2022/01/25 15:32:32;;;;;;;;;;;4.40;99.90;;;;;;4980821;28;19944;-56
2022/01/25 15:34:57;;;;;;;;;;;4.40;99.90;;;;;;4975473;28;19931;-58
2022/01/25 15:37:23;;;;;;;;;;;4.40;99.90;;;;;;4973622;28;19930;-56
2022/01/25 15:39:49;;;;;;;;;;;4.40;99.90;;;;;;4981747;28;20024;-55
2022/01/25 15:42:16;;;;;;;;;;;4.30;99.90;;;;;;4975194;28;19934;-59
2022/01/25 15:44:50;;;;;;;;;;;4.30;99.90;;;;;;4970654;28;19945;-56
2022/01/25 15:47:17;;;;;;;;;;;4.50;99.90;;;;;;4973591;28;19930;-56
2022/01/25 15:49:43;;;;;;;;;;;4.30;99.90;;;;;;4983093;28;19929;-56
2022/01/25 15:52:09;;;;;;;;;;;4.20;99.90;;;;;;4980294;28;20009;-56
2022/01/25 15:54:35;;;;;;;;;;;4.20;99.90;;;;;;4978928;28;19930;-56
2022/01/25 15:57:01;;;;;;;;;;;4.20;99.90;;;;;;4978709;28;19930;-56
2022/01/25 15:59:27;;;;;;;;;;;4.20;99.90;;;;;;4977019;28;19937;-55
2022/01/25 16:01:54;;;;;;;;;;;4.30;99.90;;;;;;4977865;28;20410;-56
2022/01/25 16:04:20;;;;;;;;;;;4.20;99.90;;;;;;4974857;28;19929;-57
2022/01/25 16:06:46;;;;;;;;;;;4.40;99.90;;;;;;4981032;28;19972;-57
2022/01/25 16:09:12;;;;;;;;;;;4.20;99.90;;;;;;4979351;28;20024;-56
2022/01/25 16:11:37;;;;;;;;;;;4.10;99.90;;;;;;4977404;28;20446;-56
2022/01/25 16:14:03;;;;;;;;;;;4.20;99.90;;;;;;4979255;28;19933;-57
2022/01/25 16:16:29;;;;;;;;;;;4.10;99.90;;;;;;4979722;28;20041;-56
2022/01/25 16:18:54;;;;;;;;;;;4.10;99.90;;;;;;4975379;28;20560;-56
2022/01/25 16:21:20;;;;;;;;;;;4.20;99.90;;;;;;4984083;28;19930;-56
2022/01/25 16:23:46;;;;;;;;;;;4.10;99.90;;;;;;4978119;28;20067;-56
2022/01/25 16:26:15;;;;;;;;;;;4.00;99.90;;;;;;4969230;28;19930;-56
2022/01/25 16:28:41;;;;;;;;;;;5.20;99.90;;;;;;4969720;28;19976;-56
2022/01/25 16:31:16;;;;;;;;;;;4.00;99.90;;;;;;5029519;28;20450;-57
2022/01/25 16:33:42;;;;;;;;;;;4.30;99.90;;;;;;4988488;28;19937;-56
2022/01/25 16:36:08;;;;;;;;;;;4.00;99.90;;;;;;4972856;28;19929;-56